Archiv-/Tagesdaten

--Timestamp---	Temp	Chill	HIndex	Humid	Dewpt	 Wind 	HiWind	WindDir	Rain 	Barom	Solar	 ET  	 UV 
--------------	----	-----	------	-----	-----	------	------	-------	-----	-----	-----	-----	----
20090618 00:00	13.8	13.8	13.8	77	9.8	0	5	112	0.0	1018.9	0	0.025	0.0
20090618 00:05	13.8	13.8	13.8	77	9.9	0	2	112	0.0	1018.9	0	0.000	0.0
20090618 00:10	13.8	13.8	13.8	77	9.9	0	2	112	0.0	1018.9	0	0.000	0.0
20090618 00:15	13.8	13.8	13.8	77	9.9	0	0	-100000	0.0	1018.9	0	0.000	0.0
20090618 00:20	13.7	13.7	13.7	78	10.0	0	2	112	0.0	1018.9	0	0.000	0.0
20090618 00:25	13.7	13.7	13.7	78	9.9	0	2	112	0.0	1018.9	0	0.000	0.0
20090618 00:30	13.6	13.6	13.6	79	10.0	0	5	112	0.0	1019.0	0	0.000	0.0
20090618 00:35	13.5	13.5	13.5	78	9.7	3	6	180	0.0	1019.0	0	0.000	0.0
20090618 00:40	13.4	13.4	13.4	79	9.9	5	8	180	0.0	1018.9	0	0.000	0.0
20090618 00:45	13.4	13.4	13.4	79	9.8	3	8	225	0.0	1018.9	0	0.000	0.0
20090618 00:50	13.3	13.3	13.3	79	9.8	3	8	225	0.0	1018.9	0	0.000	0.0
20090618 00:55	13.3	13.3	13.3	79	9.7	3	8	225	0.0	1018.8	0	0.000	0.0
20090618 01:00	13.3	13.3	13.3	79	9.8	5	8	225	0.0	1018.9	0	0.025	0.0
20090618 01:05	13.4	13.4	13.4	79	9.9	3	8	225	0.0	1018.7	0	0.000	0.0
20090618 01:10	13.6	13.6	13.6	79	10.0	3	6	225	0.0	1018.7	0	0.000	0.0
20090618 01:15	13.6	13.6	13.6	79	10.0	3	8	225	0.0	1018.7	0	0.000	0.0
20090618 01:20	13.6	13.6	13.6	79	10.0	3	6	180	0.0	1018.7	0	0.000	0.0
20090618 01:25	13.5	13.5	13.5	79	9.9	3	6	180	0.0	1018.7	0	0.000	0.0
20090618 01:30	13.4	13.4	13.4	80	10.1	2	5	180	0.0	1018.6	0	0.000	0.0
20090618 01:35	13.4	13.4	13.4	80	10.0	3	6	180	0.0	1018.7	0	0.000	0.0
20090618 01:40	13.4	13.4	13.4	80	10.0	3	10	202	0.0	1018.7	0	0.000	0.0
20090618 01:45	13.4	13.4	13.4	80	10.1	3	8	180	0.0	1018.8	0	0.000	0.0
20090618 01:50	13.4	13.4	13.4	80	10.1	2	5	180	0.0	1018.7	0	0.000	0.0
20090618 01:55	13.4	13.4	13.4	80	10.0	2	6	180	0.0	1018.7	0	0.000	0.0
20090618 02:00	13.4	13.4	13.4	80	10.0	3	6	180	0.0	1018.7	0	0.025	0.0
20090618 02:05	13.3	13.3	13.3	80	10.0	2	6	180	0.0	1018.7	0	0.000	0.0
20090618 02:10	13.3	13.3	13.3	80	9.9	3	6	180	0.0	1018.7	0	0.000	0.0
20090618 02:15	13.3	13.3	13.3	81	10.1	3	5	180	0.0	1018.7	0	0.000	0.0
20090618 02:20	13.2	13.2	13.2	81	10.0	3	6	180	0.0	1018.7	0	0.000	0.0
20090618 02:25	13.2	13.2	13.2	81	10.0	3	6	180	0.0	1018.7	0	0.000	0.0
20090618 02:30	13.2	13.2	13.2	81	10.0	3	6	180	0.0	1018.7	0	0.000	0.0
20090618 02:35	13.2	13.2	13.2	81	10.0	2	6	180	0.0	1018.7	0	0.000	0.0
20090618 02:40	13.2	13.2	13.2	81	10.0	3	6	180	0.0	1018.6	0	0.000	0.0
20090618 02:45	13.1	13.1	13.1	82	10.1	2	5	180	0.0	1018.6	0	0.000	0.0
20090618 02:50	13.1	13.1	13.1	82	10.1	3	6	180	0.0	1018.5	0	0.000	0.0
20090618 02:55	13.1	13.1	13.1	82	10.1	3	6	180	0.0	1018.5	0	0.000	0.0
20090618 03:00	13.1	13.1	13.1	82	10.1	3	6	180	0.0	1018.5	0	0.025	0.0
20090618 03:05	13.1	13.1	13.1	82	10.1	3	6	180	0.0	1018.4	0	0.000	0.0
20090618 03:10	13.1	13.1	13.1	82	10.1	3	6	202	0.0	1018.4	0	0.000	0.0
20090618 03:15	13.1	13.1	13.1	82	10.1	3	8	202	0.0	1018.3	0	0.000	0.0
20090618 03:20	13.2	13.2	13.2	82	10.2	5	8	180	0.0	1018.3	0	0.000	0.0
20090618 03:25	13.3	13.3	13.3	82	10.3	5	8	180	0.0	1018.3	0	0.000	0.0
20090618 03:30	13.3	13.3	13.3	82	10.3	5	8	180	0.0	1018.3	0	0.000	0.0
20090618 03:35	13.4	13.4	13.4	82	10.4	5	10	180	0.0	1018.2	0	0.000	0.0
20090618 03:40	13.4	13.4	13.4	82	10.4	5	8	202	0.0	1018.2	0	0.000	0.0
20090618 03:45	13.4	13.4	13.4	82	10.4	5	8	202	0.0	1018.1	0	0.000	0.0
20090618 03:50	13.3	13.3	13.3	82	10.3	5	8	202	0.0	1018.1	0	0.000	0.0
20090618 03:55	13.2	13.2	13.2	83	10.4	6	11	202	0.0	1018.1	0	0.000	0.0
20090618 04:00	13.1	13.1	13.1	83	10.2	8	11	202	0.0	1018.1	0	0.025	0.0
20090618 04:05	12.9	12.9	12.9	84	10.2	8	11	202	0.0	1018.2	0	0.000	0.0
20090618 04:10	12.8	12.8	12.8	84	10.1	6	10	202	0.0	1018.2	0	0.000	0.0
20090618 04:15	12.7	12.7	12.7	85	10.3	6	11	202	0.0	1018.2	0	0.000	0.0
20090618 04:20	12.7	12.7	12.7	85	10.2	6	10	202	0.0	1018.2	0	0.000	0.0
20090618 04:25	12.7	12.7	12.7	85	10.3	8	14	202	0.0	1018.2	0	0.000	0.0
20090618 04:30	12.7	12.7	12.7	85	10.3	6	11	202	0.0	1018.2	0	0.000	0.0
20090618 04:35	12.7	12.7	12.7	85	10.2	6	11	202	0.0	1018.2	0	0.000	0.0
20090618 04:40	12.7	12.7	12.7	85	10.2	6	10	180	0.0	1018.2	0	0.000	0.0
20090618 04:45	12.7	12.7	12.7	85	10.2	6	14	202	0.0	1018.3	0	0.000	0.0
20090618 04:50	12.7	12.7	12.7	84	10.0	6	14	202	0.0	1018.2	0	0.000	0.0
20090618 04:55	12.7	12.7	12.7	84	10.0	5	8	202	0.0	1018.2	0	0.000	0.0
20090618 05:00	12.6	12.6	12.6	84	10.0	5	8	202	0.0	1018.2	0	0.025	0.0
20090618 05:05	12.6	12.6	12.6	84	10.0	6	11	202	0.0	1018.2	0	0.000	0.0
20090618 05:10	12.6	12.6	12.6	84	9.9	6	13	202	0.0	1018.3	0	0.000	0.0
20090618 05:15	12.6	12.6	12.6	84	9.9	6	14	202	0.0	1018.3	0	0.000	0.0
20090618 05:20	12.6	12.6	12.6	84	9.9	6	10	202	0.0	1018.2	0	0.000	0.0
20090618 05:25	12.6	12.6	12.6	84	10.0	6	10	202	0.0	1018.2	0	0.000	0.0
20090618 05:30	12.7	12.7	12.7	84	10.0	5	10	202	0.0	1018.2	5	0.000	0.0
20090618 05:35	12.7	12.7	12.7	84	10.0	6	11	202	0.0	1018.3	10	0.000	0.0
20090618 05:40	12.7	12.7	12.7	84	10.1	6	11	202	0.0	1018.3	17	0.000	0.0
20090618 05:45	12.7	12.7	12.7	84	10.1	6	11	202	0.0	1018.3	23	0.000	0.0
20090618 05:50	12.8	12.8	12.8	84	10.1	8	10	202	0.0	1018.3	27	0.000	0.0
20090618 05:55	12.8	12.8	12.8	84	10.1	6	10	202	0.0	1018.3	29	0.000	0.0
20090618 06:00	12.8	12.8	12.8	84	10.1	5	8	202	0.0	1018.3	33	0.025	0.0
20090618 06:05	12.9	12.9	12.9	84	10.3	5	10	202	0.0	1018.4	37	0.000	0.0
20090618 06:10	13.0	13.0	13.0	83	10.2	6	8	225	0.0	1018.4	41	0.000	0.0
20090618 06:15	13.1	13.1	13.1	83	10.3	5	8	202	0.0	1018.2	44	0.000	0.0
20090618 06:20	13.1	13.1	13.1	83	10.3	6	10	225	0.0	1018.2	45	0.000	0.0
20090618 06:25	13.2	13.2	13.2	83	10.4	6	8	225	0.0	1018.3	47	0.000	0.0
20090618 06:30	13.3	13.3	13.3	82	10.3	6	10	225	0.0	1018.3	51	0.000	0.0
20090618 06:35	13.3	13.3	13.3	82	10.3	6	10	225	0.0	1018.3	55	0.000	0.0
20090618 06:40	13.4	13.4	13.4	82	10.4	6	10	225	0.0	1018.3	66	0.000	0.0
20090618 06:45	13.6	13.6	13.6	82	10.5	6	10	202	0.0	1018.3	74	0.000	0.0
20090618 06:50	13.7	13.7	13.7	82	10.6	6	10	202	0.0	1018.3	76	0.000	0.0
20090618 06:55	13.8	13.8	13.8	82	10.8	5	8	202	0.0	1018.4	83	0.000	0.0
20090618 07:00	13.9	13.9	13.9	82	10.9	5	8	202	0.0	1018.4	102	0.051	0.0
20090618 07:05	14.1	14.1	14.1	82	11.0	5	8	202	0.0	1018.6	143	0.000	0.0
20090618 07:10	14.3	14.3	14.3	81	11.1	5	10	202	0.0	1018.6	113	0.000	0.0
20090618 07:15	14.5	14.5	14.5	81	11.3	5	8	202	0.0	1018.6	157	0.000	0.5
20090618 07:20	14.8	14.8	14.8	80	11.4	6	8	225	0.0	1018.4	219	0.000	0.6
20090618 07:25	15.2	15.2	15.2	79	11.5	5	10	202	0.0	1018.4	241	0.000	0.6
20090618 07:30	15.7	15.7	15.7	79	12.0	5	10	202	0.0	1018.5	279	0.000	0.7
20090618 07:35	16.1	16.1	16.1	77	12.1	5	10	225	0.0	1018.4	291	0.000	0.8
20090618 07:40	16.6	16.6	16.6	78	12.7	3	8	202	0.0	1018.5	301	0.000	0.9
20090618 07:45	17.1	17.1	17.1	76	12.8	2	5	202	0.0	1018.4	315	0.000	0.9
20090618 07:50	17.6	17.6	17.6	75	13.1	5	8	225	0.0	1018.4	327	0.000	1.0
20090618 07:55	17.9	17.9	17.9	74	13.2	5	8	248	0.0	1018.4	343	0.000	1.1
20090618 08:00	18.4	18.4	18.4	70	12.9	6	10	248	0.0	1018.3	357	0.152	1.2
20090618 08:05	18.7	18.7	18.7	69	12.9	8	14	248	0.0	1018.6	372	0.000	1.3
20090618 08:10	18.9	18.9	18.9	70	13.3	6	10	270	0.0	1018.5	386	0.000	1.3
20090618 08:15	19.2	19.2	19.2	69	13.4	6	10	270	0.0	1018.5	399	0.000	1.4
20090618 08:20	19.4	19.4	19.4	69	13.6	6	11	270	0.0	1018.5	399	0.000	1.5
20090618 08:25	19.8	19.8	19.8	68	13.7	6	11	270	0.0	1018.5	426	0.000	1.6
20090618 08:30	20.2	20.2	20.2	68	14.1	5	10	292	0.0	1018.5	440	0.000	1.8
20090618 08:35	20.5	20.5	20.5	66	13.9	8	18	292	0.0	1018.4	455	0.000	1.9
20090618 08:40	20.8	20.8	20.8	67	14.4	8	16	270	0.0	1018.4	467	0.000	2.0
20090618 08:45	21.1	21.1	21.1	62	13.5	10	21	292	0.0	1018.4	480	0.000	2.1
20090618 08:50	21.2	21.2	21.2	61	13.4	11	19	292	0.0	1018.3	494	0.000	2.2
20090618 08:55	21.4	21.4	21.4	63	14.0	10	23	292	0.0	1018.4	507	0.000	2.3
20090618 09:00	21.6	21.6	21.6	60	13.5	8	16	292	0.0	1018.3	521	0.305	2.5
20090618 09:05	21.8	21.8	21.8	59	13.4	13	21	292	0.0	1018.5	533	0.000	2.6
20090618 09:10	21.8	21.8	21.8	59	13.5	11	23	270	0.0	1018.6	549	0.000	2.8
20090618 09:15	21.9	21.9	21.9	58	13.2	10	18	292	0.0	1018.5	562	0.000	2.9
20090618 09:20	22.0	22.0	22.0	58	13.3	11	19	270	0.0	1018.5	574	0.000	3.0
20090618 09:25	22.1	22.1	22.1	59	13.7	10	19	270	0.0	1018.5	587	0.000	3.2
20090618 09:30	22.5	22.5	22.5	59	14.1	6	16	270	0.0	1018.4	599	0.000	3.3
20090618 09:35	22.8	22.8	22.8	57	13.9	8	18	270	0.0	1018.4	611	0.000	3.5
20090618 09:40	22.8	22.8	22.8	54	13.0	10	16	292	0.0	1018.4	624	0.000	3.6
20090618 09:45	22.9	22.9	22.9	55	13.4	8	18	270	0.0	1018.5	635	0.000	3.8
20090618 09:50	23.1	23.1	23.1	53	12.9	8	18	292	0.0	1018.5	648	0.000	3.9
20090618 09:55	23.2	23.2	23.2	52	12.8	10	18	292	0.0	1018.4	658	0.000	4.1
20090618 10:00	23.2	23.2	23.2	50	12.2	10	21	292	0.0	1018.4	670	0.432	4.3
20090618 10:05	23.3	23.3	23.3	51	12.6	10	21	292	0.0	1018.6	680	0.000	4.4
20090618 10:10	23.4	23.4	23.4	53	13.3	8	18	270	0.0	1018.6	690	0.000	4.6
20090618 10:15	23.4	23.4	23.4	50	12.4	11	21	292	0.0	1018.7	700	0.000	4.8
20090618 10:20	23.6	23.6	23.6	53	13.5	11	19	270	0.0	1018.7	710	0.000	4.9
20090618 10:25	23.7	23.7	23.7	53	13.5	11	21	270	0.0	1018.7	719	0.000	5.0
20090618 10:30	23.8	23.8	23.8	53	13.6	11	21	292	0.0	1018.7	727	0.000	5.2
20090618 10:35	23.9	23.9	25.3	54	14.0	11	21	292	0.0	1018.7	734	0.000	5.3
20090618 10:40	23.9	23.9	25.4	50	12.9	13	21	292	0.0	1018.7	747	0.000	5.5
20090618 10:45	24.1	24.1	25.4	50	13.0	13	23	292	0.0	1018.7	753	0.000	5.7
20090618 10:50	24.1	24.1	25.4	53	13.9	8	18	315	0.0	1018.7	763	0.000	5.8
20090618 10:55	24.2	24.2	25.5	51	13.4	11	18	292	0.0	1018.7	776	0.000	6.0
20090618 11:00	24.3	24.3	25.5	49	12.9	11	23	292	0.0	1018.5	782	0.533	6.1
20090618 11:05	24.2	24.2	25.5	50	13.1	13	23	315	0.0	1018.6	799	0.000	6.3
20090618 11:10	24.2	24.2	25.5	49	12.8	10	19	315	0.0	1018.6	824	0.000	6.5
20090618 11:15	24.1	24.1	25.4	49	12.7	13	19	315	0.0	1018.6	853	0.000	6.7
20090618 11:20	24.3	24.3	25.5	49	12.9	10	19	292	0.0	1018.7	872	0.000	6.8
20090618 11:25	24.4	24.4	25.6	50	13.3	13	21	292	0.0	1018.6	558	0.000	5.9
20090618 11:30	24.7	24.7	25.7	50	13.5	10	18	292	0.0	1018.6	834	0.000	7.0
20090618 11:35	24.6	24.6	25.7	48	12.9	13	23	315	0.0	1018.6	829	0.000	7.1
20090618 11:40	24.7	24.7	25.7	48	12.9	10	21	292	0.0	1018.6	837	0.000	7.3
20090618 11:45	24.9	24.9	25.8	49	13.5	10	21	292	0.0	1018.4	845	0.000	7.4
20090618 11:50	25.1	25.1	25.9	48	13.3	11	21	292	0.0	1018.4	850	0.000	7.5
20090618 11:55	25.3	25.3	26.0	49	13.8	13	23	292	0.0	1018.4	854	0.000	7.6
20090618 12:00	25.3	25.3	26.1	50	14.1	13	21	315	0.0	1018.3	863	0.610	7.8
20090618 12:05	25.4	25.4	26.2	52	14.8	8	18	292	0.0	1018.3	868	0.000	7.9
20090618 12:10	25.6	25.6	26.2	50	14.4	13	27	292	0.0	1018.2	866	0.000	7.9
20090618 12:15	25.6	25.6	26.3	50	14.4	11	21	270	0.0	1018.2	875	0.000	8.1
20090618 12:20	25.7	25.7	26.3	49	14.2	11	26	45	0.0	1018.2	884	0.000	8.1
20090618 12:25	25.7	25.7	26.3	49	14.1	14	27	292	0.0	1018.1	884	0.000	8.2
20090618 12:30	25.6	25.6	26.2	50	14.4	14	24	292	0.0	1018.1	881	0.000	8.3
20090618 12:35	25.5	25.5	26.2	51	14.6	14	29	315	0.0	1018.1	884	0.000	8.3
20090618 12:40	25.6	25.6	26.3	50	14.4	14	24	292	0.0	1018.2	893	0.000	8.3
20090618 12:45	25.7	25.7	26.3	50	14.5	14	24	270	0.0	1018.1	923	0.000	8.5
20090618 12:50	25.9	25.9	26.6	53	15.6	11	19	292	0.0	1018.1	859	0.000	8.0
20090618 12:55	26.1	26.1	26.7	52	15.4	13	29	292	0.0	1018.1	969	0.000	8.7
20090618 13:00	26.1	26.1	26.6	49	14.5	13	23	315	0.0	1018.0	1013	0.660	7.8
20090618 13:05	25.8	25.8	26.4	50	14.6	14	26	292	0.0	1017.9	623	0.000	7.5
20090618 13:10	25.8	25.8	26.4	50	14.6	11	19	292	0.0	1018.0	921	0.000	8.6
20090618 13:15	26.1	26.1	26.6	50	14.8	11	21	270	0.0	1018.0	902	0.000	8.2
20090618 13:20	26.3	26.3	26.7	49	14.7	14	26	270	0.0	1018.0	738	0.000	7.6
20090618 13:25	26.3	26.3	26.9	52	15.7	13	24	270	0.0	1017.8	931	0.000	8.6
20090618 13:30	26.4	26.4	26.9	49	14.9	13	24	292	0.0	1017.7	927	0.000	8.6
20090618 13:35	26.4	26.4	27.0	52	15.8	13	23	292	0.0	1017.6	901	0.000	8.5
20090618 13:40	26.6	26.6	27.1	52	15.9	13	23	292	0.0	1017.5	906	0.000	8.1
20090618 13:45	26.6	26.6	27.1	52	15.9	14	24	292	0.0	1017.6	779	0.000	7.9
20090618 13:50	26.6	26.6	27.2	52	15.9	11	21	270	0.0	1017.4	959	0.000	7.4
20090618 13:55	26.7	26.7	27.1	49	15.1	16	26	292	0.0	1017.4	760	0.000	7.0
20090618 14:00	26.7	26.7	27.3	52	16.0	11	24	292	0.0	1017.3	933	0.610	8.3
20090618 14:05	26.8	26.8	27.3	51	15.8	13	23	315	0.0	1017.3	936	0.000	8.2
20090618 14:10	26.8	26.8	27.2	49	15.2	11	21	292	0.0	1017.3	946	0.000	5.8
20090618 14:15	26.6	26.6	27.2	52	15.9	11	21	292	0.0	1017.1	471	0.000	6.5
20090618 14:20	26.8	26.8	27.3	51	15.8	10	19	270	0.0	1017.1	886	0.000	7.6
20090618 14:25	26.9	26.9	27.5	52	16.2	6	14	315	0.0	1017.0	883	0.000	7.6
20090618 14:30	27.2	27.2	27.7	51	16.2	11	19	292	0.0	1017.0	871	0.000	7.6
20090618 14:35	27.3	27.3	27.7	50	16.0	10	21	292	0.0	1016.9	864	0.000	7.5
20090618 14:40	27.4	27.4	27.9	50	16.1	8	19	315	0.0	1016.9	859	0.000	7.5
20090618 14:45	27.6	27.6	27.9	49	15.9	6	16	292	0.0	1016.7	855	0.000	6.9
20090618 14:50	27.7	27.7	28.0	49	16.0	10	21	292	0.0	1016.7	861	0.000	7.2
20090618 14:55	27.8	27.8	28.4	52	17.0	10	24	315	0.0	1016.6	840	0.000	7.1
20090618 15:00	27.8	27.8	28.3	50	16.4	6	18	292	0.0	1016.6	835	0.584	7.1
20090618 15:05	27.7	27.7	28.1	50	16.3	14	26	315	0.0	1016.4	849	0.000	7.0
20090618 15:10	27.6	27.6	28.1	51	16.5	8	16	292	0.0	1016.3	652	0.000	5.8
20090618 15:15	27.3	27.3	27.7	50	16.0	8	16	292	0.0	1016.4	244	0.000	4.1
20090618 15:20	27.1	27.1	27.7	54	16.9	8	19	315	0.0	1016.4	825	0.000	5.4
20090618 15:25	26.9	26.9	27.5	53	16.5	6	11	315	0.0	1016.2	107	0.000	2.9
20090618 15:30	26.6	26.6	27.3	54	16.5	6	13	315	0.0	1016.3	466	0.000	4.1
20090618 15:35	26.9	26.9	27.5	52	16.2	6	10	292	0.0	1016.2	810	0.000	5.8
20090618 15:40	27.2	27.2	27.5	49	15.5	5	11	270	0.0	1016.1	403	0.000	4.4
20090618 15:45	27.4	27.4	27.9	51	16.3	5	11	270	0.0	1016.1	602	0.000	5.4
20090618 15:50	27.7	27.7	28.1	50	16.3	10	19	292	0.0	1015.9	686	0.000	5.0
20090618 15:55	27.5	27.5	28.0	51	16.4	11	23	315	0.0	1016.0	641	0.000	4.5
20090618 16:00	27.5	27.5	28.1	52	16.7	6	14	270	0.0	1015.9	765	0.432	5.0
20090618 16:05	27.9	27.9	28.5	52	17.1	8	16	270	0.0	1016.0	756	0.000	5.0
20090618 16:10	28.1	28.1	28.4	49	16.3	6	11	248	0.0	1015.8	132	0.000	3.4
20090618 16:15	28.2	28.2	28.5	48	16.2	5	10	292	0.0	1015.7	748	0.000	4.8
20090618 16:20	28.3	28.3	28.7	49	16.6	8	18	270	0.0	1015.6	563	0.000	4.4
20090618 16:25	28.5	28.5	28.9	49	16.7	8	18	315	0.0	1015.5	676	0.000	4.5
20090618 16:30	28.5	28.5	28.8	48	16.4	11	19	292	0.0	1015.5	670	0.000	4.4
20090618 16:35	28.6	28.6	28.8	47	16.1	13	21	270	0.0	1015.4	661	0.000	4.3
20090618 16:40	28.7	28.7	29.0	48	16.6	10	16	270	0.0	1015.3	542	0.000	3.7
20090618 16:45	28.5	28.5	28.9	49	16.7	8	16	270	0.0	1015.3	409	0.000	2.6
20090618 16:50	28.3	28.3	28.7	49	16.5	8	16	292	0.0	1015.2	170	0.000	1.7
20090618 16:55	27.9	27.9	28.4	50	16.5	8	16	292	0.0	1015.3	152	0.000	2.0
20090618 17:00	27.6	27.6	28.1	51	16.5	6	11	292	0.0	1015.2	382	0.406	2.7
20090618 17:05	27.6	27.6	28.0	50	16.2	8	14	270	0.0	1015.2	161	0.000	2.2
20090618 17:10	27.5	27.5	27.9	50	16.1	8	16	292	0.0	1015.1	225	0.000	2.2
20090618 17:15	27.7	27.7	28.2	51	16.6	8	16	292	0.0	1015.1	482	0.000	2.5
20090618 17:20	27.8	27.8	28.4	52	17.1	6	10	292	0.0	1015.1	542	0.000	2.4
20090618 17:25	28.1	28.1	28.8	53	17.6	6	16	292	0.0	1015.1	348	0.000	2.1
20090618 17:30	27.8	27.8	28.5	53	17.4	5	8	292	0.0	1015.1	110	0.000	1.6
20090618 17:35	27.5	27.5	28.1	53	17.1	5	10	292	0.0	1015.0	207	0.000	1.5
20090618 17:40	27.1	27.1	27.7	54	16.9	5	10	315	0.0	1015.0	102	0.000	1.3
20090618 17:45	26.7	26.7	27.3	54	16.6	5	10	292	0.0	1014.9	111	0.000	1.2
20090618 17:50	26.4	26.4	27.3	57	17.2	2	5	292	0.0	1014.9	138	0.000	1.1
20090618 17:55	26.2	26.2	27.0	57	17.0	5	11	315	0.0	1015.0	168	0.000	1.2
20090618 18:00	26.0	26.0	26.8	57	16.8	8	16	315	0.0	1014.9	183	0.203	1.1
20090618 18:05	25.9	25.9	26.8	58	17.0	6	10	315	0.0	1014.8	197	0.000	1.1
20090618 18:10	26.0	26.0	26.9	59	17.4	5	14	315	0.0	1014.7	379	0.000	1.4
20090618 18:15	26.5	26.5	27.3	57	17.3	6	11	292	0.0	1014.7	489	0.000	1.5
20090618 18:20	26.9	26.9	27.6	54	16.8	8	19	292	0.0	1014.7	453	0.000	1.3
20090618 18:25	27.1	27.1	27.9	56	17.5	10	19	292	0.0	1014.6	431	0.000	1.3
20090618 18:30	27.1	27.1	27.8	55	17.2	10	19	315	0.0	1014.5	373	0.000	1.3
20090618 18:35	27.1	27.1	27.9	56	17.5	8	16	315	0.0	1014.5	373	0.000	1.2
20090618 18:40	27.0	27.0	27.7	55	17.2	6	14	270	0.0	1014.5	319	0.000	1.1
20090618 18:45	27.1	27.1	27.9	57	17.8	5	8	315	0.0	1014.4	326	0.000	1.0
20090618 18:50	27.3	27.3	28.2	56	17.8	3	10	315	0.0	1014.3	323	0.000	0.9
20090618 18:55	27.5	27.5	28.2	54	17.3	3	8	315	0.0	1014.3	302	0.000	0.8
20090618 19:00	27.4	27.4	28.2	55	17.6	3	8	315	0.0	1014.2	287	0.279	0.8
20090618 19:05	27.4	27.4	28.2	55	17.6	2	5	315	0.0	1013.7	262	0.000	0.7
20090618 19:10	27.3	27.3	28.1	55	17.5	2	8	315	0.0	1013.7	168	0.000	0.5
20090618 19:15	27.3	27.3	28.1	56	17.7	0	2	315	0.0	1013.7	195	0.000	0.6
20090618 19:20	27.2	27.2	28.0	56	17.6	2	6	315	0.0	1013.7	168	0.000	0.4
20090618 19:25	26.9	26.9	27.7	55	17.1	5	8	292	0.0	1013.7	113	0.000	0.5
20090618 19:30	26.7	26.7	27.6	58	17.8	3	6	315	0.0	1013.7	62	0.000	0.0
20090618 19:35	26.5	26.5	27.3	57	17.3	3	6	315	0.0	1013.7	62	0.000	0.0
20090618 19:40	26.3	26.3	27.2	58	17.4	2	6	315	0.0	1013.8	59	0.000	0.0
20090618 19:45	26.2	26.2	27.0	58	17.2	2	5	315	0.0	1013.7	51	0.000	0.0
20090618 19:50	26.1	26.1	26.9	59	17.4	0	3	315	0.0	1013.8	46	0.000	0.0
20090618 19:55	25.9	25.9	26.9	61	17.8	0	2	315	0.0	1013.7	44	0.000	0.0
20090618 20:00	25.9	25.9	26.9	60	17.6	0	2	315	0.0	1013.6	36	0.076	0.0
20090618 20:05	25.8	25.8	26.7	60	17.4	0	2	315	0.0	1013.4	38	0.000	0.0
20090618 20:10	25.7	25.7	26.6	59	17.0	0	0	-100000	0.0	1013.3	23	0.000	0.0
20090618 20:15	25.6	25.6	26.5	61	17.5	0	0	-100000	0.0	1013.3	18	0.000	0.0
20090618 20:20	25.3	25.3	26.3	62	17.5	0	0	-100000	0.0	1013.2	17	0.000	0.0
20090618 20:25	25.1	25.1	26.1	63	17.6	0	0	-100000	0.0	1013.2	13	0.000	0.0
20090618 20:30	24.9	24.9	25.9	65	17.8	0	2	315	0.0	1013.2	11	0.000	0.0
20090618 20:35	24.7	24.7	25.7	65	17.6	0	0	-100000	0.0	1013.3	11	0.000	0.0
20090618 20:40	24.5	24.5	25.5	66	17.7	0	0	-100000	0.0	1013.5	9	0.000	0.0
20090618 20:45	24.3	24.3	25.3	65	17.3	0	2	45	0.0	1013.5	9	0.000	0.0
20090618 20:50	24.1	24.1	25.2	66	17.4	0	0	-100000	0.0	1013.5	9	0.000	0.0
20090618 20:55	23.9	23.9	25.1	64	16.7	0	0	-100000	0.0	1013.5	8	0.000	0.0
20090618 21:00	23.7	23.7	23.7	66	16.9	0	0	-100000	0.0	1013.5	7	0.025	0.0
20090618 21:05	23.4	23.4	23.4	67	17.0	0	0	-100000	0.0	1013.5	7	0.000	0.0
20090618 21:10	23.3	23.3	23.3	67	16.8	0	0	-100000	0.0	1013.6	5	0.000	0.0
20090618 21:15	23.1	23.1	23.1	68	16.9	0	0	-100000	0.0	1013.5	3	0.000	0.0
20090618 21:20	23.0	23.0	23.0	69	17.0	0	0	-100000	0.0	1013.7	0	0.000	0.0
20090618 21:25	22.9	22.9	22.9	69	16.9	0	0	-100000	0.0	1013.7	0	0.000	0.0
20090618 21:30	22.8	22.8	22.8	69	16.8	0	0	-100000	0.0	1013.8	0	0.000	0.0
20090618 21:35	22.7	22.7	22.7	70	16.9	2	8	22	0.0	1014.0	0	0.000	0.0
20090618 21:40	22.2	22.2	22.2	72	16.9	0	5	22	0.0	1014.1	0	0.000	0.0
20090618 21:45	21.8	21.8	21.8	70	16.1	0	5	22	0.0	1014.1	0	0.000	0.0
20090618 21:50	21.4	21.4	21.4	71	16.0	0	2	22	0.0	1014.2	0	0.000	0.0
20090618 21:55	21.2	21.2	21.2	71	15.7	0	2	22	0.0	1014.3	0	0.000	0.0
20090618 22:00	21.1	21.1	21.1	71	15.6	0	0	-100000	0.0	1014.3	0	0.000	0.0
20090618 22:05	21.0	21.0	21.0	72	15.8	0	2	22	0.0	1014.1	0	0.000	0.0
20090618 22:10	20.9	20.9	20.9	72	15.7	0	0	-100000	0.0	1014.1	0	0.000	0.0
20090618 22:15	20.9	20.9	20.9	72	15.7	0	2	22	0.0	1014.1	0	0.000	0.0
20090618 22:20	20.8	20.8	20.8	73	15.8	0	0	-100000	0.0	1014.1	0	0.000	0.0
20090618 22:25	20.7	20.7	20.7	73	15.7	0	0	-100000	0.0	1014.2	0	0.000	0.0
20090618 22:30	20.6	20.6	20.6	73	15.6	0	0	-100000	0.0	1014.2	0	0.000	0.0
20090618 22:35	20.4	20.4	20.4	74	15.6	0	2	22	0.0	1014.1	0	0.000	0.0
20090618 22:40	20.3	20.3	20.3	74	15.5	0	2	22	0.0	1014.1	0	0.000	0.0
20090618 22:45	20.3	20.3	20.3	74	15.5	0	3	22	0.0	1014.0	0	0.000	0.0
20090618 22:50	20.2	20.2	20.2	75	15.6	2	5	22	0.0	1013.9	0	0.000	0.0
20090618 22:55	20.1	20.1	20.1	75	15.5	0	2	22	0.0	1013.9	0	0.000	0.0
20090618 23:00	20.0	20.0	20.0	75	15.4	0	3	45	0.0	1013.9	0	0.025	0.0
20090618 23:05	19.9	19.9	19.9	75	15.4	0	0	-100000	0.0	1013.8	0	0.000	0.0
20090618 23:10	19.8	19.8	19.8	75	15.2	2	8	45	0.0	1013.9	0	0.000	0.0
20090618 23:15	19.7	19.7	19.7	75	15.1	3	10	22	0.0	1013.9	0	0.000	0.0
20090618 23:20	19.5	19.5	19.5	76	15.2	5	10	45	0.0	1014.0	0	0.000	0.0
20090618 23:25	19.3	19.3	19.3	77	15.2	5	8	45	0.0	1013.9	0	0.000	0.0
20090618 23:30	19.2	19.2	19.2	77	15.0	2	3	45	0.0	1014.0	0	0.000	0.0
20090618 23:35	19.1	19.1	19.1	78	15.1	0	3	45	0.0	1013.9	0	0.000	0.0
20090618 23:40	18.9	18.9	18.9	79	15.2	0	0	-100000	0.0	1013.9	0	0.000	0.0
20090618 23:45	18.8	18.8	18.8	79	15.1	0	0	-100000	0.0	1014.0	0	0.000	0.0
20090618 23:50	18.7	18.7	18.7	79	15.0	0	2	45	0.0	1014.1	0	0.000	0.0
20090618 23:55	18.7	18.7	18.7	80	15.1	0	3	45	0.0	1014.1	0	0.000	0.0



Please note the license to use and transfer of this data:
http://creativecommons.org/licenses/by-nc-sa/3.0/deed.en

Bitte beachten sie die Lizenz zur Verwertung und Weitergabe der Daten:
http://creativecommons.org/licenses/by-nc-sa/3.0/deed.de

zurück zur Übersicht der Archivdaten (Monats und Tagesdaten)

Cookies helfen bei der Bereitstellung von Inhalten. Durch die Nutzung dieser Seiten erklärst du dich damit einverstanden, dass Cookies auf deinem Rechner gespeichert werden. Weitere Information